Time;durP1;ratioP1;P1;durP2;ratioP2;P2;SDS_P1;SDS_P2;PMS_P1;PMS_P2;Temp;Humidity;BMP_temperature;BMP_pressure;BME280_temperature;BME280_humidity;BME280_pressure;Samples;Min_cycle;Max_cycle;Signal;HPM_P1;HPM_P2
2023/06/26 00:01:11;;;;;;;5.57;2.30;;;27.20;73.90;;;;;;10776512;32;20059;-73
2023/06/26 00:07:14;;;;;;;6.75;2.25;;;27.10;74.20;;;;;;10789644;33;20471;-73
2023/06/26 00:14:02;;;;;;;3.75;1.87;;;27.00;74.40;;;;;;10774914;33;20047;-73
2023/06/26 00:20:05;;;;;;;3.50;1.83;;;26.90;74.50;;;;;;10784632;33;20062;-73
2023/06/26 00:26:12;;;;;;;3.05;1.75;;;26.80;74.70;;;;;;10788009;33;20051;-73
2023/06/26 00:32:14;;;;;;;4.10;2.40;;;26.80;74.90;;;;;;10784084;33;20016;-73
2023/06/26 00:38:17;;;;;;;9.45;2.00;;;26.70;75.10;;;;;;10787639;33;20013;-73
2023/06/26 00:44:19;;;;;;;3.67;2.15;;;26.70;75.10;;;;;;10762002;33;20421;-73
2023/06/26 00:50:22;;;;;;;4.18;2.47;;;26.60;75.20;;;;;;10787452;33;20414;-73
2023/06/26 00:56:24;;;;;;;3.25;1.95;;;26.50;75.30;;;;;;10787318;33;20043;-73
2023/06/26 01:02:33;;;;;;;3.65;2.25;;;26.40;75.40;;;;;;10787125;33;20056;-73
2023/06/26 01:08:35;;;;;;;4.57;2.78;;;26.40;75.50;;;;;;10786473;33;20016;-72
2023/06/26 01:14:37;;;;;;;4.25;2.78;;;26.30;75.50;;;;;;10770001;33;20327;-73
2023/06/26 01:20:41;;;;;;;4.12;2.55;;;26.50;75.20;;;;;;10787034;33;20047;-73
2023/06/26 01:26:44;;;;;;;4.85;2.30;;;26.40;75.10;;;;;;10792942;33;20028;-73
2023/06/26 01:32:50;;;;;;;7.00;4.12;;;26.40;74.70;;;;;;10788984;33;20017;-76
2023/06/26 01:39:40;;;;;;;7.18;3.78;;;26.20;74.70;;;;;;10680171;33;20013;-73
2023/06/26 01:45:44;;;;;;;6.82;4.07;;;25.90;75.90;;;;;;10677436;33;20036;-73
2023/06/26 01:52:02;;;;;;;3.85;2.15;;;25.80;76.20;;;;;;10679872;33;20040;-73
2023/06/26 01:58:06;;;;;;;3.30;2.22;;;25.90;76.50;;;;;;10666842;33;20320;-73
2023/06/26 02:04:08;;;;;;;5.35;3.50;;;25.90;76.60;;;;;;10676461;33;20037;-73
2023/06/26 02:10:10;;;;;;;5.12;2.37;;;25.90;76.70;;;;;;10678130;33;20331;-73
2023/06/26 02:16:12;;;;;;;4.47;2.92;;;25.80;76.70;;;;;;10766414;33;20315;-73
2023/06/26 02:22:17;;;;;;;8.20;3.35;;;25.80;76.60;;;;;;10778764;33;20063;-73
2023/06/26 02:28:19;;;;;;;4.30;2.50;;;25.80;76.50;;;;;;10791223;33;20047;-74
2023/06/26 02:34:21;;;;;;;7.15;2.22;;;25.80;76.90;;;;;;10792038;33;20020;-72
2023/06/26 02:40:23;;;;;;;5.78;2.78;;;25.80;76.90;;;;;;10791640;33;20063;-73
2023/06/26 02:46:27;;;;;;;4.15;2.03;;;25.70;77.00;;;;;;10790954;33;20052;-73
2023/06/26 02:52:29;;;;;;;5.12;2.90;;;25.60;77.10;;;;;;10789382;33;20029;-73
2023/06/26 02:58:31;;;;;;;4.80;2.72;;;25.70;77.20;;;;;;10790545;33;20358;-73
2023/06/26 03:04:36;;;;;;;5.75;3.10;;;25.70;76.80;;;;;;10777803;33;20024;-73
2023/06/26 03:10:38;;;;;;;5.25;2.85;;;25.50;76.90;;;;;;10790035;33;20347;-72
2023/06/26 03:16:41;;;;;;;4.55;2.50;;;25.50;76.80;;;;;;10774259;33;20032;-73
2023/06/26 03:22:44;;;;;;;5.05;3.40;;;25.50;77.00;;;;;;10790919;33;20050;-74
2023/06/26 03:28:47;;;;;;;5.32;3.25;;;25.50;77.40;;;;;;10772685;33;20079;-73
2023/06/26 03:34:49;;;;;;;8.80;4.18;;;25.40;78.50;;;;;;10789468;33;20029;-73
2023/06/26 03:40:52;;;;;;;6.28;3.17;;;25.40;79.10;;;;;;10790304;33;20051;-73
2023/06/26 03:46:54;;;;;;;4.03;2.78;;;25.40;78.40;;;;;;10785215;33;20066;-72
2023/06/26 03:52:56;;;;;;;5.87;3.67;;;25.40;79.10;;;;;;10788566;33;20068;-73
2023/06/26 03:58:58;;;;;;;7.00;3.40;;;25.40;79.60;;;;;;10788787;33;20047;-73
2023/06/26 04:05:03;;;;;;;5.47;3.20;;;25.50;78.80;;;;;;10789800;33;20025;-73
2023/06/26 04:11:12;;;;;;;5.75;2.62;;;25.50;79.40;;;;;;10776360;33;20054;-73
2023/06/26 04:17:14;;;;;;;5.95;3.58;;;25.50;79.00;;;;;;10788402;33;20319;-72
2023/06/26 04:23:16;;;;;;;7.05;4.35;;;25.60;78.90;;;;;;10770533;33;20071;-73
2023/06/26 04:29:25;;;;;;;6.18;3.65;;;25.60;78.80;;;;;;10784582;33;20043;-73
2023/06/26 04:35:36;;;;;;;5.03;3.17;;;25.60;78.70;;;;;;10776600;33;20082;-73
2023/06/26 04:41:38;;;;;;;5.57;3.67;;;25.50;78.60;;;;;;10788332;33;20021;-73
2023/06/26 04:47:40;;;;;;;5.18;3.22;;;25.60;78.50;;;;;;10774103;33;20059;-73
2023/06/26 04:53:42;;;;;;;4.95;2.85;;;25.60;78.70;;;;;;10787470;33;20296;-73
2023/06/26 04:59:44;;;;;;;6.57;3.50;;;25.70;78.80;;;;;;10794422;33;20055;-73
2023/06/26 05:05:46;;;;;;;5.87;3.55;;;25.70;79.00;;;;;;10791855;33;20334;-73
2023/06/26 05:12:01;;;;;;;5.65;2.92;;;25.80;78.90;;;;;;10793964;33;20382;-73
2023/06/26 05:18:03;;;;;;;3.67;2.12;;;25.80;79.00;;;;;;10793876;33;20020;-74
2023/06/26 05:25:00;;;;;;;3.85;2.12;;;25.90;79.20;;;;;;10717133;33;20021;-73
2023/06/26 05:31:04;;;;;;;3.60;1.90;;;26.10;79.00;;;;;;10723046;33;20401;-74
2023/06/26 05:37:07;;;;;;;7.40;3.35;;;26.20;79.20;;;;;;10722942;33;20021;-74
2023/06/26 05:43:10;;;;;;;6.53;3.65;;;26.30;79.10;;;;;;10710857;33;20028;-73
2023/06/26 05:49:12;;;;;;;7.05;4.62;;;26.30;79.00;;;;;;10720396;33;20047;-73
2023/06/26 05:55:15;;;;;;;6.50;4.15;;;26.40;79.20;;;;;;10782189;33;20024;-74
2023/06/26 06:01:17;;;;;;;6.37;4.60;;;26.50;79.20;;;;;;10791407;33;20413;-73
2023/06/26 06:07:19;;;;;;;7.12;3.80;;;26.60;79.00;;;;;;10789766;33;20021;-73
2023/06/26 06:13:21;;;;;;;6.15;4.50;;;26.70;79.00;;;;;;10791670;33;20031;-74
2023/06/26 06:19:24;;;;;;;5.80;3.72;;;26.90;78.80;;;;;;10772592;33;20032;-74
2023/06/26 06:25:26;;;;;;;7.43;3.95;;;27.10;78.00;;;;;;10773876;33;20040;-73
2023/06/26 06:31:28;;;;;;;7.00;4.75;;;27.10;78.10;;;;;;10778043;33;20357;-73
2023/06/26 06:37:31;;;;;;;7.80;4.60;;;27.10;77.80;;;;;;10787070;33;20440;-73
2023/06/26 06:43:33;;;;;;;7.97;5.00;;;27.20;77.90;;;;;;10788381;33;20358;-73
2023/06/26 06:49:36;;;;;;;4.90;3.12;;;27.30;77.70;;;;;;10790532;33;20013;-73
2023/06/26 06:55:38;;;;;;;8.95;4.03;;;27.40;77.60;;;;;;10789588;33;20389;-73
2023/06/26 07:01:40;;;;;;;7.82;4.68;;;27.60;77.20;;;;;;10790193;33;20055;-73
2023/06/26 07:07:42;;;;;;;6.97;4.80;;;27.70;76.90;;;;;;10790112;33;20039;-76
2023/06/26 07:13:44;;;;;;;7.43;4.22;;;27.70;77.00;;;;;;10774056;33;20028;-75
2023/06/26 07:19:47;;;;;;;6.75;3.85;;;27.80;77.30;;;;;;10783027;33;20032;-74
2023/06/26 07:25:49;;;;;;;5.40;3.60;;;27.80;77.70;;;;;;10795490;27;20012;-76
2023/06/26 07:31:51;;;;;;;8.02;4.12;;;28.00;77.40;;;;;;10785780;33;20398;-75
2023/06/26 07:37:53;;;;;;;5.47;3.47;;;28.10;76.20;;;;;;10787485;33;20414;-75
2023/06/26 07:43:56;;;;;;;5.78;3.08;;;28.20;75.30;;;;;;10775213;33;20033;-76
2023/06/26 07:49:58;;;;;;;6.37;3.42;;;28.30;73.60;;;;;;10787001;33;20059;-75
2023/06/26 07:56:00;;;;;;;5.43;3.12;;;28.30;74.10;;;;;;10788855;33;20304;-75
2023/06/26 08:02:03;;;;;;;5.55;3.30;;;28.50;74.40;;;;;;10788499;33;20036;-76
2023/06/26 08:08:06;;;;;;;7.37;4.15;;;28.60;74.30;;;;;;10785727;33;20025;-75
2023/06/26 08:14:08;;;;;;;5.65;3.30;;;28.70;74.10;;;;;;10788262;33;20056;-75
2023/06/26 08:20:11;;;;;;;4.53;2.92;;;28.70;73.80;;;;;;10784710;32;20047;-77
2023/06/26 08:26:14;;;;;;;6.15;3.33;;;28.80;73.40;;;;;;10751368;33;20032;-75
2023/06/26 08:32:16;;;;;;;5.93;3.62;;;28.90;72.40;;;;;;10750891;33;20327;-77
2023/06/26 08:38:21;;;;;;;6.37;4.22;;;28.90;72.70;;;;;;10751096;33;20056;-77
2023/06/26 08:44:24;;;;;;;5.37;3.60;;;29.00;73.20;;;;;;10750902;33;20025;-74
2023/06/26 08:50:33;;;;;;;5.65;3.87;;;29.10;72.70;;;;;;10747961;33;20052;-76
2023/06/26 08:56:38;;;;;;;9.82;4.18;;;29.20;71.30;;;;;;10756224;32;20021;-76
2023/06/26 09:02:41;;;;;;;5.25;2.72;;;29.30;71.20;;;;;;10774980;32;20035;-75
2023/06/26 09:08:43;;;;;;;6.45;3.37;;;29.40;70.70;;;;;;10787036;33;20008;-73
2023/06/26 09:14:46;;;;;;;3.37;2.58;;;29.50;69.50;;;;;;10786754;33;20024;-74
2023/06/26 09:20:49;;;;;;;4.22;3.00;;;29.70;68.50;;;;;;10782736;33;20348;-75
2023/06/26 09:26:51;;;;;;;4.07;2.70;;;29.80;67.90;;;;;;10778840;33;20358;-76
2023/06/26 09:32:54;;;;;;;6.93;4.30;;;29.90;66.30;;;;;;10783807;33;20054;-77
2023/06/26 09:38:56;;;;;;;6.57;4.15;;;30.00;66.60;;;;;;10769395;33;20032;-76
2023/06/26 09:44:59;;;;;;;4.97;3.42;;;30.10;65.50;;;;;;10764507;33;20063;-75
2023/06/26 09:51:01;;;;;;;6.93;3.62;;;30.20;65.90;;;;;;10818478;32;20099;-76
2023/06/26 09:57:18;;;;;;;5.57;3.60;;;30.40;65.60;;;;;;10968784;32;20031;-76
2023/06/26 10:03:20;;;;;;;5.60;2.97;;;30.40;64.90;;;;;;10984651;32;20401;-76
2023/06/26 10:09:24;;;;;;;8.40;4.90;;;30.60;64.20;;;;;;10984338;32;20019;-76
2023/06/26 10:15:28;;;;;;;5.53;3.20;;;30.80;64.20;;;;;;10984182;32;20026;-75
2023/06/26 10:21:34;;;;;;;7.20;3.47;;;30.90;63.10;;;;;;10983936;32;20431;-77
2023/06/26 10:27:40;;;;;;;5.57;3.80;;;31.10;63.40;;;;;;10983794;32;20345;-75
2023/06/26 10:33:42;;;;;;;7.90;3.90;;;31.20;62.00;;;;;;10983593;32;20041;-76
2023/06/26 10:39:49;;;;;;;5.40;3.47;;;31.10;59.70;;;;;;10969509;32;20333;-76
2023/06/26 10:45:55;;;;;;;5.28;3.10;;;31.30;59.70;;;;;;10982977;32;20270;-75
2023/06/26 10:52:01;;;;;;;10.13;3.05;;;31.60;58.80;;;;;;10979306;32;20313;-75
2023/06/26 10:58:04;;;;;;;5.27;3.50;;;31.50;57.80;;;;;;10982515;32;20018;-76
2023/06/26 11:04:07;;;;;;;7.95;3.87;;;31.60;57.60;;;;;;10982307;32;20141;-76
2023/06/26 11:10:09;;;;;;;8.18;4.30;;;31.90;57.50;;;;;;10982096;32;20015;-75
2023/06/26 11:16:13;;;;;;;5.43;3.37;;;32.00;56.60;;;;;;10981889;32;20073;-75
2023/06/26 11:22:16;;;;;;;5.97;3.45;;;32.30;56.00;;;;;;10968008;32;20076;-72
2023/06/26 11:28:18;;;;;;;9.13;4.80;;;32.70;56.20;;;;;;10968161;32;20564;-75
2023/06/26 11:34:22;;;;;;;5.85;4.00;;;32.60;52.60;;;;;;10979764;32;20437;-74
2023/06/26 11:40:26;;;;;;;5.85;3.60;;;32.60;51.70;;;;;;10980963;32;20023;-73
2023/06/26 11:46:30;;;;;;;5.22;3.78;;;32.90;51.90;;;;;;10980685;32;20049;-75
2023/06/26 11:52:33;;;;;;;5.32;3.33;;;33.30;51.50;;;;;;10966782;32;20061;-73
2023/06/26 11:58:36;;;;;;;6.07;3.85;;;33.50;50.70;;;;;;10978285;32;20011;-73
2023/06/26 12:04:41;;;;;;;5.28;3.72;;;33.30;50.00;;;;;;10980004;32;20403;-72
2023/06/26 12:10:43;;;;;;;6.43;3.25;;;33.30;50.00;;;;;;10980119;32;20045;-73
2023/06/26 12:16:45;;;;;;;6.15;4.05;;;33.40;51.30;;;;;;10965195;32;20061;-74
2023/06/26 12:22:48;;;;;;;6.20;3.75;;;33.40;49.20;;;;;;10979843;32;20046;-74
2023/06/26 12:28:51;;;;;;;5.87;3.80;;;33.40;48.90;;;;;;10979624;32;20022;-75
2023/06/26 12:34:55;;;;;;;5.18;3.05;;;33.70;50.10;;;;;;10976109;32;20026;-75
2023/06/26 12:40:58;;;;;;;5.47;3.05;;;33.70;49.60;;;;;;10979344;32;20042;-76
2023/06/26 12:47:01;;;;;;;6.60;3.12;;;33.80;49.60;;;;;;10961844;32;20388;-76
2023/06/26 12:53:03;;;;;;;7.60;3.60;;;33.90;48.70;;;;;;10965799;32;20064;-75
2023/06/26 12:59:06;;;;;;;6.87;4.18;;;33.80;48.00;;;;;;10979101;32;20018;-74
2023/06/26 13:05:08;;;;;;;7.25;4.57;;;33.70;47.20;;;;;;10854117;32;20028;-73
2023/06/26 13:11:10;;;;;;;5.55;3.12;;;33.60;47.70;;;;;;10750583;33;20013;-72
2023/06/26 13:17:12;;;;;;;5.18;3.35;;;33.60;48.70;;;;;;10751385;33;20025;-73
2023/06/26 13:23:15;;;;;;;5.60;3.87;;;33.80;48.60;;;;;;10743746;33;20016;-73
2023/06/26 13:29:17;;;;;;;5.50;3.05;;;33.90;48.20;;;;;;10743046;33;20048;-72
2023/06/26 13:35:53;;;;;;;6.15;2.50;;;34.00;48.10;;;;;;10756305;33;20017;-72
2023/06/26 13:41:55;;;;;;;4.43;2.95;;;34.00;47.70;;;;;;10756118;33;20051;-73
2023/06/26 13:47:57;;;;;;;5.55;3.55;;;34.00;47.70;;;;;;10773115;33;20390;-73
2023/06/26 13:54:00;;;;;;;12.95;5.78;;;34.00;47.70;;;;;;10791996;33;20028;-73
2023/06/26 14:00:03;;;;;;;9.65;4.75;;;34.00;51.00;;;;;;10787862;33;20429;-73
2023/06/26 14:06:14;;;;;;;5.37;3.05;;;33.90;50.90;;;;;;10908107;32;20011;-73
2023/06/26 14:12:16;;;;;;;5.93;3.92;;;33.80;53.00;;;;;;10944819;32;20053;-75
2023/06/26 14:18:19;;;;;;;8.93;3.42;;;33.80;54.00;;;;;;10779420;32;20527;-74
2023/06/26 14:24:21;;;;;;;7.05;4.68;;;33.80;53.80;;;;;;10765552;33;20024;-75
2023/06/26 14:30:23;;;;;;;6.95;4.95;;;33.80;52.80;;;;;;10775935;32;20058;-74
2023/06/26 14:36:26;;;;;;;7.95;4.87;;;33.90;52.50;;;;;;10790751;33;20020;-74
2023/06/26 14:42:28;;;;;;;5.15;3.47;;;33.90;53.70;;;;;;10777284;33;20079;-73
2023/06/26 14:48:31;;;;;;;5.70;3.50;;;33.80;52.70;;;;;;10790271;33;20051;-72
2023/06/26 14:54:36;;;;;;;6.85;3.65;;;33.80;52.20;;;;;;10790005;33;20043;-75
2023/06/26 15:00:38;;;;;;;8.32;4.78;;;33.80;52.00;;;;;;10790104;33;20012;-74
2023/06/26 15:06:40;;;;;;;7.62;5.40;;;33.80;52.50;;;;;;10789672;33;20017;-74
2023/06/26 15:12:43;;;;;;;5.65;3.20;;;33.60;56.10;;;;;;10789579;33;20387;-74
2023/06/26 15:18:45;;;;;;;6.75;4.12;;;33.50;54.60;;;;;;10789488;33;20016;-72
2023/06/26 15:24:47;;;;;;;10.05;4.37;;;33.50;53.60;;;;;;10789253;33;20020;-74
2023/06/26 15:30:49;;;;;;;4.90;3.25;;;33.60;54.20;;;;;;10360836;27;12197954;-73
2023/06/26 15:36:51;;;;;;;5.10;3.42;;;33.50;55.30;;;;;;10711303;33;20363;-73
2023/06/26 15:42:53;;;;;;;6.57;3.45;;;33.50;54.50;;;;;;10698710;33;20331;-73
2023/06/26 15:48:56;;;;;;;5.03;3.28;;;33.40;54.70;;;;;;10708037;33;20024;-73
2023/06/26 15:54:58;;;;;;;8.73;4.40;;;33.50;54.00;;;;;;10711924;33;20032;-73
2023/06/26 16:01:00;;;;;;;12.63;4.85;;;33.40;54.40;;;;;;10746899;33;20055;-73
2023/06/26 16:07:02;;;;;;;5.07;3.25;;;33.40;54.50;;;;;;10788119;33;20047;-73
2023/06/26 16:13:05;;;;;;;6.80;3.17;;;33.40;55.60;;;;;;10788302;33;20304;-75
2023/06/26 16:19:07;;;;;;;6.72;4.57;;;33.40;57.10;;;;;;10774453;33;20406;-73
2023/06/26 16:25:10;;;;;;;7.12;3.10;;;33.30;57.90;;;;;;10783960;33;20056;-73
2023/06/26 16:31:12;;;;;;;5.75;3.42;;;33.30;56.90;;;;;;10774780;33;20436;-73
2023/06/26 16:37:15;;;;;;;6.28;3.08;;;33.30;56.00;;;;;;10774177;33;20104;-73
2023/06/26 16:43:17;;;;;;;6.43;4.00;;;33.30;55.40;;;;;;10787495;33;20020;-74
2023/06/26 16:49:19;;;;;;;10.00;4.03;;;33.30;54.90;;;;;;10773997;33;20028;-72
2023/06/26 16:55:21;;;;;;;10.80;3.80;;;33.20;56.50;;;;;;10793040;33;20315;-72
2023/06/26 17:01:23;;;;;;;6.97;4.05;;;33.10;56.60;;;;;;10781299;33;20039;-74
2023/06/26 17:07:26;;;;;;;10.10;3.15;;;33.10;55.80;;;;;;10793718;33;20008;-73
2023/06/26 17:13:28;;;;;;;15.88;3.03;;;33.20;56.00;;;;;;10780447;33;20025;-73
2023/06/26 17:19:31;;;;;;;6.37;2.37;;;33.10;55.40;;;;;;10789706;33;20020;-72
2023/06/26 17:25:33;;;;;;;5.47;2.97;;;33.00;56.50;;;;;;10793020;33;20046;-73
2023/06/26 17:31:35;;;;;;;9.77;3.50;;;32.90;56.60;;;;;;10793036;33;20395;-72
2023/06/26 17:37:38;;;;;;;8.65;3.33;;;32.90;55.60;;;;;;10793034;33;20047;-73
2023/06/26 17:43:40;;;;;;;6.03;3.30;;;32.90;55.30;;;;;;10792758;33;20476;-72
2023/06/26 17:49:42;;;;;;;5.93;3.42;;;32.90;56.10;;;;;;10792424;33;20020;-72
2023/06/26 17:55:44;;;;;;;4.62;2.75;;;32.80;56.90;;;;;;10779148;33;20009;-72
2023/06/26 18:01:46;;;;;;;5.72;3.47;;;32.80;58.50;;;;;;10791627;33;20032;-72
2023/06/26 18:07:49;;;;;;;5.07;2.83;;;32.80;59.00;;;;;;10776857;32;20021;-72
2023/06/26 18:13:51;;;;;;;4.22;2.53;;;32.60;59.60;;;;;;10791724;33;20016;-71
2023/06/26 18:19:53;;;;;;;6.12;2.90;;;32.40;59.90;;;;;;10791682;33;20039;-72
2023/06/26 18:25:55;;;;;;;5.12;3.05;;;32.20;60.10;;;;;;10787642;33;20410;-71
2023/06/26 18:31:57;;;;;;;4.10;2.95;;;31.90;60.60;;;;;;10791646;33;20331;-72
2023/06/26 18:38:00;;;;;;;5.53;2.75;;;31.80;60.90;;;;;;10788359;33;20055;-72
2023/06/26 18:44:02;;;;;;;6.78;2.55;;;31.70;61.60;;;;;;10790879;33;20342;-71
2023/06/26 18:50:06;;;;;;;3.85;2.45;;;31.60;62.20;;;;;;10787845;33;20402;-72
2023/06/26 18:56:08;;;;;;;4.97;2.85;;;31.60;62.80;;;;;;10788490;33;20035;-72
2023/06/26 19:02:10;;;;;;;3.00;1.90;;;31.40;64.70;;;;;;10789299;33;20381;-72
2023/06/26 19:08:12;;;;;;;5.10;2.92;;;31.30;65.30;;;;;;10786480;33;20016;-71
2023/06/26 19:14:15;;;;;;;4.55;2.87;;;31.20;66.30;;;;;;10776735;33;20016;-72
2023/06/26 19:20:18;;;;;;;5.57;2.92;;;31.00;67.40;;;;;;10789755;33;20016;-71
2023/06/26 19:26:21;;;;;;;4.90;2.28;;;30.90;68.30;;;;;;10775684;33;20090;-71
2023/06/26 19:32:24;;;;;;;4.30;2.92;;;30.90;68.60;;;;;;10789422;33;20020;-71
2023/06/26 19:38:26;;;;;;;4.50;2.17;;;30.90;69.00;;;;;;10789478;33;20043;-72
2023/06/26 19:44:28;;;;;;;4.45;2.80;;;30.90;68.80;;;;;;10788807;33;20028;-72
2023/06/26 19:50:31;;;;;;;5.60;3.30;;;30.80;69.80;;;;;;10789078;33;20085;-72
2023/06/26 19:56:33;;;;;;;3.75;2.25;;;30.70;70.10;;;;;;10787713;33;20346;-71
2023/06/26 20:02:50;;;;;;;4.87;2.80;;;30.60;70.50;;;;;;10785727;33;20059;-72
2023/06/26 20:08:53;;;;;;;5.07;2.50;;;30.60;70.70;;;;;;10768059;33;20025;-71
2023/06/26 20:14:55;;;;;;;3.10;2.20;;;30.60;70.60;;;;;;10782441;33;20028;-71
2023/06/26 20:20:58;;;;;;;2.40;1.83;;;30.40;70.90;;;;;;10782734;33;20055;-71
2023/06/26 20:27:01;;;;;;;3.28;2.53;;;30.30;71.10;;;;;;10824658;33;20062;-71
2023/06/26 20:33:03;;;;;;;6.18;2.85;;;30.20;71.20;;;;;;10824970;33;20024;-71
2023/06/26 20:39:05;;;;;;;4.65;2.53;;;30.20;71.40;;;;;;10824961;33;20046;-71
2023/06/26 20:45:08;;;;;;;3.35;2.30;;;30.20;71.60;;;;;;10824946;33;20051;-71
2023/06/26 20:51:12;;;;;;;3.60;2.30;;;30.10;71.60;;;;;;10822307;33;20070;-71
2023/06/26 20:57:15;;;;;;;3.28;2.17;;;30.00;72.00;;;;;;10824081;33;20020;-71
2023/06/26 21:03:17;;;;;;;4.72;2.75;;;30.00;72.10;;;;;;10821262;33;20058;-71
2023/06/26 21:09:20;;;;;;;4.05;2.53;;;29.90;72.30;;;;;;10823960;33;20020;-71
2023/06/26 21:15:22;;;;;;;3.03;1.52;;;29.80;72.50;;;;;;10823780;33;20020;-71
2023/06/26 21:21:24;;;;;;;3.70;2.22;;;29.80;72.60;;;;;;10820401;33;20055;-71
2023/06/26 21:27:27;;;;;;;5.05;2.92;;;29.80;73.10;;;;;;10822233;33;20028;-72
2023/06/26 21:33:30;;;;;;;5.60;3.25;;;29.70;74.50;;;;;;10810174;33;20024;-71
2023/06/26 21:39:32;;;;;;;9.70;3.53;;;29.50;75.20;;;;;;10822016;32;20023;-71
2023/06/26 21:45:36;;;;;;;4.43;2.60;;;29.60;75.20;;;;;;10825526;33;20054;-71
2023/06/26 21:51:40;;;;;;;5.53;3.35;;;29.60;75.10;;;;;;10815582;33;20051;-71
2023/06/26 21:57:43;;;;;;;4.65;2.58;;;29.50;75.00;;;;;;10829017;33;20028;-71
2023/06/26 22:03:46;;;;;;;5.50;3.17;;;29.40;74.60;;;;;;10824809;33;20028;-71
2023/06/26 22:09:48;;;;;;;4.97;2.65;;;29.30;74.40;;;;;;10790938;33;20312;-71
2023/06/26 22:15:51;;;;;;;4.85;2.65;;;29.30;74.30;;;;;;10790840;33;20060;-71
2023/06/26 22:21:53;;;;;;;3.87;2.40;;;29.20;74.50;;;;;;10789680;33;20059;-71
2023/06/26 22:27:55;;;;;;;5.07;3.58;;;29.10;74.70;;;;;;10790266;33;20406;-71
2023/06/26 22:33:58;;;;;;;5.28;3.22;;;29.10;74.50;;;;;;10790216;32;20028;-71
2023/06/26 22:40:00;;;;;;;4.28;2.47;;;29.00;74.80;;;;;;10767964;33;20331;-71
2023/06/26 22:46:02;;;;;;;3.47;2.15;;;28.80;75.10;;;;;;10790895;33;20051;-71
2023/06/26 22:52:05;;;;;;;4.50;3.08;;;28.70;75.30;;;;;;10790400;33;20024;-71
2023/06/26 22:58:07;;;;;;;4.85;3.08;;;28.70;75.60;;;;;;10790671;33;20448;-71
2023/06/26 23:04:09;;;;;;;4.65;2.90;;;28.60;75.50;;;;;;10788922;33;20032;-71
2023/06/26 23:10:11;;;;;;;5.00;3.28;;;28.60;75.50;;;;;;10788831;33;20060;-71
2023/06/26 23:16:13;;;;;;;4.95;3.22;;;28.50;75.50;;;;;;10790148;33;20417;-71
2023/06/26 23:22:19;;;;;;;4.25;2.25;;;28.40;75.60;;;;;;10789786;33;20453;-71
2023/06/26 23:28:21;;;;;;;4.75;3.35;;;28.30;75.90;;;;;;10792693;27;20319;-71
2023/06/26 23:34:23;;;;;;;5.12;3.22;;;28.30;76.10;;;;;;10789437;33;20013;-71
2023/06/26 23:40:26;;;;;;;3.95;2.45;;;28.30;76.20;;;;;;10774617;33;20028;-71
2023/06/26 23:46:29;;;;;;;4.85;2.95;;;28.30;75.90;;;;;;10789079;33;20042;-71
2023/06/26 23:52:33;;;;;;;6.25;3.40;;;28.20;76.10;;;;;;10789092;33;20079;-71
2023/06/26 23:58:35;;;;;;;4.43;2.90;;;28.20;76.10;;;;;;10788843;33;20012;-71
